Time;durP1;ratioP1;P1;durP2;ratioP2;P2;SDS_P1;SDS_P2;PMS_P1;PMS_P2;Temp;Humidity;BMP_temperature;BMP_pressure;BME280_temperature;BME280_humidity;BME280_pressure;Samples;Min_cycle;Max_cycle;Signal;HPM_P1;HPM_P2
2022/01/27 00:13:00;;;;;;;;;;;;;;;;;;5069007;28;20049;-87
2022/01/27 00:15:32;;;;;;;;;;;;;;;;;;5063497;28;19921;-89
2022/01/27 00:18:03;;;;;;;;;;;;;;;;;;5076124;28;19973;-88
2022/01/27 00:20:29;;;;;;;;;;;;;;;;;;5085299;28;20476;-88
2022/01/27 00:22:55;;;;;;;;;;;;;;;;;;5088944;28;19960;-87
2022/01/27 00:25:21;;;;;;;;;;;;;;;;;;5087954;28;19920;-87
2022/01/27 00:27:47;;;;;;;;;;;;;;;;;;5091004;28;19955;-87
2022/01/27 00:30:14;;;;;;;;;;;;;;;;;;5087356;28;19920;-88
2022/01/27 00:32:40;;;;;;;;;;;;;;;;;;5089277;28;19916;-86
2022/01/27 00:35:06;;;;;;;;;;;;;;;;;;5088549;28;20239;-87
2022/01/27 00:37:32;;;;;;;;;;;;;;;;;;5068134;28;20012;-88
2022/01/27 00:39:58;;;;;;;;;;;;;;;;;;5068504;28;19964;-88
2022/01/27 00:42:26;;;;;;;;;;;;;;;;;;5087703;28;19947;-88
2022/01/27 00:44:53;;;;;;;;;;;;;;;;;;5086848;28;19970;-87
2022/01/27 00:47:19;;;;;;;;;;;;;;;;;;5086320;28;19948;-88
2022/01/27 00:49:45;;;;;;;;;;;;;;;;;;5089016;28;19951;-90
2022/01/27 00:52:16;;;;;;;;;;;;;;;;;;5083466;28;20780;-84
2022/01/27 00:54:42;;;;;;;;;;;;;;;;;;5085300;28;19935;-86
2022/01/27 00:57:59;;;;;;;;;;;;;;;;;;5087067;28;19990;-85
2022/01/27 01:00:03;;;;;;;;;;;;;;;;;;5078437;28;19973;-87
2022/01/27 01:07:57;;;;;;;;;;;;;;;;;;5088250;28;20222;-90
2022/01/27 01:14:20;;;;;;;;;;;;;;;;;;5088622;28;19951;-88
2022/01/27 01:15:41;;;;;;;;;;;;;;;;;;5052306;28;20851;-88
2022/01/27 01:21:27;;;;;;;;;;;;;;;;;;5042246;28;20502;-87
2022/01/27 01:30:21;;;;;;;;;;;;;;;;;;5086064;28;19924;-83
2022/01/27 01:32:18;;;;;;;;;;;;;;;;;;5065709;28;19939;-84
2022/01/27 01:34:47;;;;;;;;;;;;;;;;;;5078560;28;21331;-85
2022/01/27 01:37:17;;;;;;;;;;;;;;;;;;5075357;28;20495;-83
2022/01/27 01:39:43;;;;;;;;;;;;;;;;;;5086804;28;19944;-84
2022/01/27 01:42:12;;;;;;;;;;;;;;;;;;5085742;28;19956;-86
2022/01/27 01:44:43;;;;;;;;;;;;;;;;;;5085584;28;20500;-86
2022/01/27 01:47:09;;;;;;;;;;;;;;;;;;5082971;28;20016;-86
2022/01/27 01:49:36;;;;;;;;;;;;;;;;;;5086595;28;19989;-87
2022/01/27 01:52:02;;;;;;;;;;;;;;;;;;5086630;28;20036;-88
2022/01/27 01:54:28;;;;;;;;;;;;;;;;;;5086916;28;19954;-86
2022/01/27 01:56:54;;;;;;;;;;;;;;;;;;5086527;28;19958;-86
2022/01/27 01:59:20;;;;;;;;;;;;;;;;;;5068511;28;20524;-86
2022/01/27 02:01:47;;;;;;;;;;;;;;;;;;5085209;28;19947;-86
2022/01/27 02:04:13;;;;;;;;;;;;;;;;;;5086253;28;19924;-82
2022/01/27 02:06:48;;;;;;;;;;;;;;;;;;5078433;28;19959;-82
2022/01/27 02:09:23;;;;;;;;;;;;;;;;;;5084695;28;19954;-82
2022/01/27 02:20:05;;;;;;;;;;;;;;;;;;5085645;28;19927;-81
2022/01/27 02:22:31;;;;;;;;;;;;;;;;;;5084712;28;19955;-82
2022/01/27 02:24:57;;;;;;;;;;;;;;;;;;5087020;28;19956;-82
2022/01/27 02:27:23;;;;;;;;;;;;;;;;;;5080083;28;19951;-82
2022/01/27 02:29:49;;;;;;;;;;;;;;;;;;5067529;28;19963;-82
2022/01/27 02:32:16;;;;;;;;;;;;;;;;;;5085510;28;19944;-82
2022/01/27 02:34:42;;;;;;;;;;;;;;;;;;5076052;28;19956;-82
2022/01/27 02:37:08;;;;;;;;;;;;;;;;;;5065315;28;20388;-82
2022/01/27 02:39:34;;;;;;;;;;;;;;;;;;5086151;28;19952;-83
2022/01/27 02:42:00;;;;;;;;;;;;;;;;;;5084249;28;19916;-82
2022/01/27 02:44:27;;;;;;;;;;;;;;;;;;5081527;28;19963;-83
2022/01/27 02:46:53;;;;;;;;;;;;;;;;;;5087053;28;19959;-84
2022/01/27 02:49:19;;;;;;;;;;;;;;;;;;5087750;28;19960;-82
2022/01/27 02:51:45;;;;;;;;;;;;;;;;;;5071101;28;19912;-83
2022/01/27 02:54:11;;;;;;;;;;;;;;;;;;5086744;28;19943;-81
2022/01/27 02:56:45;;;;;;;;;;;;;;;;;;5084088;28;19963;-83
2022/01/27 02:59:11;;;;;;;;;;;;;;;;;;5066663;28;20408;-81
2022/01/27 03:01:37;;;;;;;;;;;;;;;;;;5084850;28;19955;-82
2022/01/27 03:04:04;;;;;;;;;;;;;;;;;;5085580;28;19982;-85
2022/01/27 03:06:30;;;;;;;;;;;;;;;;;;5084674;28;19979;-87
2022/01/27 03:08:56;;;;;;;;;;;;;;;;;;5085820;28;20030;-84
2022/01/27 03:11:22;;;;;;;;;;;;;;;;;;5087083;28;19966;-83
2022/01/27 03:13:48;;;;;;;;;;;;;;;;;;5087581;28;20038;-81
2022/01/27 03:16:15;;;;;;;;;;;;;;;;;;5084439;28;19960;-81
2022/01/27 03:18:41;;;;;;;;;;;;;;;;;;5087997;28;19971;-85
2022/01/27 03:21:09;;;;;;;;;;;;;;;;;;5070151;28;20024;-84
2022/01/27 03:23:35;;;;;;;;;;;;;;;;;;5086447;28;19970;-84
2022/01/27 03:26:02;;;;;;;;;;;;;;;;;;5088363;28;19957;-85
2022/01/27 03:28:30;;;;;;;;;;;;;;;;;;5086740;28;19959;-86
2022/01/27 03:30:56;;;;;;;;;;;;;;;;;;5088631;28;19971;-81
2022/01/27 03:33:22;;;;;;;;;;;;;;;;;;5084849;28;20333;-83
2022/01/27 03:35:48;;;;;;;;;;;;;;;;;;5087458;28;20039;-83
2022/01/27 03:38:15;;;;;;;;;;;;;;;;;;5087895;28;20371;-81
2022/01/27 03:40:41;;;;;;;;;;;;;;;;;;5059445;28;19956;-81
2022/01/27 03:43:09;;;;;;;;;;;;;;;;;;5085276;28;20340;-82
2022/01/27 03:45:35;;;;;;;;;;;;;;;;;;5081019;28;19952;-81
2022/01/27 03:48:01;;;;;;;;;;;;;;;;;;5087815;28;19955;-82
2022/01/27 03:50:28;;;;;;;;;;;;;;;;;;5081653;28;20336;-82
2022/01/27 03:52:54;;;;;;;;;;;;;;;;;;5089076;28;20369;-82
2022/01/27 03:55:20;;;;;;;;;;;;;;;;;;5086548;28;19958;-84
2022/01/27 03:57:46;;;;;;;;;;;;;;;;;;5071040;28;19952;-83
2022/01/27 04:00:12;;;;;;;;;;;;;;;;;;5066009;28;19952;-83
2022/01/27 04:02:50;;;;;;;;;;;;;;;;;;5081934;28;19955;-83
2022/01/27 04:05:19;;;;;;;;;;;;;;;;;;5084471;28;20666;-83
2022/01/27 04:07:45;;;;;;;;;;;;;;;;;;5063552;28;19952;-84
2022/01/27 04:10:11;;;;;;;;;;;;;;;;;;5086397;28;19993;-84
2022/01/27 04:12:37;;;;;;;;;;;;;;;;;;5073332;28;20795;-83
2022/01/27 04:15:03;;;;;;;;;;;;;;;;;;5067261;28;20005;-85
2022/01/27 04:17:29;;;;;;;;;;;;;;;;;;5064049;28;19952;-85
2022/01/27 04:19:57;;;;;;;;;;;;;;;;;;5066656;28;19989;-84
2022/01/27 04:22:25;;;;;;;;;;;;;;;;;;5064470;28;19912;-84
2022/01/27 04:24:51;;;;;;;;;;;;;;;;;;5063667;28;19962;-84
2022/01/27 04:27:22;;;;;;;;;;;;;;;;;;5066288;28;19978;-83
2022/01/27 04:29:48;;;;;;;;;;;;;;;;;;5065631;28;19951;-84
2022/01/27 04:32:21;;;;;;;;;;;;;;;;;;5062593;28;19982;-86
2022/01/27 04:34:47;;;;;;;;;;;;;;;;;;5063400;28;20313;-85
2022/01/27 04:37:14;;;;;;;;;;;;;;;;;;5065280;28;19951;-85
2022/01/27 04:39:52;;;;;;;;;;;;;;;;;;5066898;28;19921;-85
2022/01/27 04:42:32;;;;;;;;;;;;;;;;;;5065180;28;20360;-85
2022/01/27 04:45:03;;;;;;;;;;;;;;;;;;5063794;28;20317;-85
2022/01/27 04:47:36;;;;;;;;;;;;;;;;;;5072732;28;20376;-84
2022/01/27 04:50:02;;;;;;;;;;;;;;;;;;5059197;28;19927;-85
2022/01/27 04:52:31;;;;;;;;;;;;;;;;;;5061904;28;19951;-84
2022/01/27 04:55:10;;;;;;;;;;;;;;;;;;5064143;28;19987;-84
2022/01/27 04:57:39;;;;;;;;;;;;;;;;;;5063517;28;20503;-88
2022/01/27 05:00:07;;;;;;;;;;;;;;;;;;5087775;28;20391;-87
2022/01/27 05:05:05;;;;;;;;;;;;;;;;;;5060098;28;19956;-85
2022/01/27 05:07:31;;;;;;;;;;;;;;;;;;5061468;28;19951;-87
2022/01/27 05:10:02;;;;;;;;;;;;;;;;;;5065967;28;20025;-84
2022/01/27 05:12:37;;;;;;;;;;;;;;;;;;5064838;28;19944;-87
2022/01/27 05:15:03;;;;;;;;;;;;;;;;;;5067864;28;19961;-89
2022/01/27 05:17:30;;;;;;;;;;;;;;;;;;5064215;28;19920;-87
2022/01/27 05:19:56;;;;;;;;;;;;;;;;;;5062726;28;19944;-88
2022/01/27 05:22:22;;;;;;;;;;;;;;;;;;5064235;28;20508;-86
2022/01/27 05:24:48;;;;;;;;;;;;;;;;;;5072432;28;19974;-86
2022/01/27 05:27:14;;;;;;;;;;;;;;;;;;5086759;28;20019;-83
2022/01/27 05:29:41;;;;;;;;;;;;;;;;;;5084951;28;19956;-84
2022/01/27 05:32:07;;;;;;;;;;;;;;;;;;5087461;28;19952;-84
2022/01/27 05:34:33;;;;;;;;;;;;;;;;;;5084154;28;20013;-85
2022/01/27 05:36:59;;;;;;;;;;;;;;;;;;5069285;28;19947;-85
2022/01/27 05:39:25;;;;;;;;;;;;;;;;;;5081964;28;19952;-87
2022/01/27 05:41:51;;;;;;;;;;;;;;;;;;5065925;28;20030;-85
2022/01/27 05:44:18;;;;;;;;;;;;;;;;;;5067410;28;20418;-87
2022/01/27 05:46:44;;;;;;;;;;;;;;;;;;5055909;28;19956;-87
2022/01/27 05:49:10;;;;;;;;;;;;;;;;;;5066288;28;19940;-88
2022/01/27 05:51:36;;;;;;;;;;;;;;;;;;5064185;28;19978;-86
2022/01/27 05:54:02;;;;;;;;;;;;;;;;;;5062194;28;19959;-87
2022/01/27 05:56:28;;;;;;;;;;;;;;;;;;5060118;28;19955;-87
2022/01/27 05:58:55;;;;;;;;;;;;;;;;;;5064978;28;19948;-86
2022/01/27 06:01:21;;;;;;;;;;;;;;;;;;5062653;28;19960;-85
2022/01/27 06:03:47;;;;;;;;;;;;;;;;;;5065355;28;19975;-85
2022/01/27 06:06:13;;;;;;;;;;;;;;;;;;5054933;28;19960;-85
2022/01/27 06:08:40;;;;;;;;;;;;;;;;;;5061697;28;19970;-84
2022/01/27 06:11:06;;;;;;;;;;;;;;;;;;5066597;28;19913;-85
2022/01/27 06:13:32;;;;;;;;;;;;;;;;;;5066680;28;19982;-87
2022/01/27 06:15:58;;;;;;;;;;;;;;;;;;5067664;28;19970;-88
2022/01/27 06:18:24;;;;;;;;;;;;;;;;;;5065779;28;19940;-87
2022/01/27 06:20:51;;;;;;;;;;;;;;;;;;5068810;28;19960;-86
2022/01/27 06:23:17;;;;;;;;;;;;;;;;;;5063563;28;19952;-87
2022/01/27 06:25:43;;;;;;;;;;;;;;;;;;5067298;28;19955;-87
2022/01/27 06:28:09;;;;;;;;;;;;;;;;;;5067831;28;19960;-86
2022/01/27 06:30:35;;;;;;;;;;;;;;;;;;5061826;28;20435;-86
2022/01/27 06:33:02;;;;;;;;;;;;;;;;;;5064111;28;20397;-87
2022/01/27 06:35:28;;;;;;;;;;;;;;;;;;5064191;28;20013;-86
2022/01/27 06:37:54;;;;;;;;;;;;;;;;;;5069331;28;19960;-86
2022/01/27 06:40:20;;;;;;;;;;;;;;;;;;5063198;28;20564;-87
2022/01/27 06:42:46;;;;;;;;;;;;;;;;;;5062047;28;19951;-87
2022/01/27 06:45:13;;;;;;;;;;;;;;;;;;5064704;28;19932;-86
2022/01/27 06:47:39;;;;;;;;;;;;;;;;;;5066768;28;19940;-87
2022/01/27 06:50:05;;;;;;;;;;;;;;;;;;5062334;28;19957;-87
2022/01/27 06:52:31;;;;;;;;;;;;;;;;;;5058702;28;19955;-88
2022/01/27 06:54:58;;;;;;;;;;;;;;;;;;5044034;28;20372;-87
2022/01/27 06:57:24;;;;;;;;;;;;;;;;;;5077040;28;20344;-87
2022/01/27 06:59:50;;;;;;;;;;;;;;;;;;5087970;28;20388;-87
2022/01/27 07:02:16;;;;;;;;;;;;;;;;;;5086516;28;19955;-93
2022/01/27 07:04:43;;;;;;;;;;;;;;;;;;5086120;28;19951;-89
2022/01/27 07:07:09;;;;;;;;;;;;;;;;;;5068275;28;19981;-83
2022/01/27 07:09:35;;;;;;;;;;;;;;;;;;5082619;28;20017;-85
2022/01/27 07:12:01;;;;;;;;;;;;;;;;;;5086621;28;19999;-87
2022/01/27 07:14:29;;;;;;;;;;;;;;;;;;5083557;28;20529;-87
2022/01/27 07:16:57;;;;;;;;;;;;;;;;;;5082058;28;19947;-87
2022/01/27 07:19:23;;;;;;;;;;;;;;;;;;5065389;28;19966;-87
2022/01/27 07:21:49;;;;;;;;;;;;;;;;;;5087124;28;19944;-87
2022/01/27 07:24:15;;;;;;;;;;;;;;;;;;5073256;28;19924;-87
2022/01/27 07:26:41;;;;;;;;;;;;;;;;;;5066039;28;20372;-86
2022/01/27 07:29:08;;;;;;;;;;;;;;;;;;5068233;28;20025;-87
2022/01/27 07:31:34;;;;;;;;;;;;;;;;;;5066084;28;19963;-85
2022/01/27 07:34:00;;;;;;;;;;;;;;;;;;5066719;28;19944;-84
2022/01/27 07:36:28;;;;;;;;;;;;;;;;;;5065664;28;20414;-88
2022/01/27 07:38:54;;;;;;;;;;;;;;;;;;5067297;28;19963;-85
2022/01/27 07:41:20;;;;;;;;;;;;;;;;;;5081463;28;20380;-88
2022/01/27 07:43:47;;;;;;;;;;;;;;;;;;5068732;28;19960;-84
2022/01/27 07:46:13;;;;;;;;;;;;;;;;;;5068499;28;20640;-83
2022/01/27 07:48:39;;;;;;;;;;;;;;;;;;5070317;28;19917;-86
2022/01/27 07:51:07;;;;;;;;;;;;;;;;;;5067467;28;19960;-85
2022/01/27 07:53:33;;;;;;;;;;;;;;;;;;5070767;28;20777;-84
2022/01/27 07:56:02;;;;;;;;;;;;;;;;;;5088809;28;19955;-87
2022/01/27 07:58:28;;;;;;;;;;;;;;;;;;5083718;28;19943;-87
2022/01/27 08:00:54;;;;;;;;;;;;;;;;;;5073422;28;19951;-84
2022/01/27 08:03:20;;;;;;;;;;;;;;;;;;5075376;28;20429;-84
2022/01/27 08:05:46;;;;;;;;;;;;;;;;;;5086079;28;19974;-85
2022/01/27 08:08:12;;;;;;;;;;;;;;;;;;5084054;28;19955;-81
2022/01/27 08:10:39;;;;;;;;;;;;;;;;;;5089293;28;19947;-86
2022/01/27 08:13:05;;;;;;;;;;;;;;;;;;5088758;28;19951;-86
2022/01/27 08:15:31;;;;;;;;;;;;;;;;;;5068097;28;19977;-86
2022/01/27 08:17:57;;;;;;;;;;;;;;;;;;5080678;28;19967;-85
2022/01/27 08:20:23;;;;;;;;;;;;;;;;;;5044800;28;19986;-86
2022/01/27 08:22:52;;;;;;;;;;;;;;;;;;5092012;28;19954;-86
2022/01/27 08:25:18;;;;;;;;;;;;;;;;;;5084638;28;20046;-84
2022/01/27 08:27:46;;;;;;;;;;;;;;;;;;5089017;28;19951;-85
2022/01/27 08:30:15;;;;;;;;;;;;;;;;;;5070094;28;19975;-80
2022/01/27 08:32:56;;;;;;;;;;;;;;;;;;5086861;28;19948;-85
2022/01/27 08:35:22;;;;;;;;;;;;;;;;;;5079726;28;19959;-86
2022/01/27 08:37:48;;;;;;;;;;;;;;;;;;5086726;28;19975;-85
2022/01/27 08:40:14;;;;;;;;;;;;;;;;;;5085867;28;19982;-85
2022/01/27 08:42:40;;;;;;;;;;;;;;;;;;5087499;28;19978;-85
2022/01/27 08:45:07;;;;;;;;;;;;;;;;;;5084153;28;20017;-86
2022/01/27 08:47:33;;;;;;;;;;;;;;;;;;5086145;28;19999;-86
2022/01/27 08:50:00;;;;;;;;;;;;;;;;;;5063609;28;20370;-85
2022/01/27 08:52:26;;;;;;;;;;;;;;;;;;5086827;28;19959;-85
2022/01/27 08:54:52;;;;;;;;;;;;;;;;;;5091186;28;19951;-85
2022/01/27 08:57:19;;;;;;;;;;;;;;;;;;5083645;28;19948;-84
2022/01/27 08:59:46;;;;;;;;;;;;;;;;;;5083256;28;19956;-85
2022/01/27 09:02:13;;;;;;;;;;;;;;;;;;5090733;28;20533;-85
2022/01/27 09:04:39;;;;;;;;;;;;;;;;;;5085552;28;20779;-85
2022/01/27 09:07:05;;;;;;;;;;;;;;;;;;5089190;28;19950;-91
2022/01/27 09:09:31;;;;;;;;;;;;;;;;;;5075501;28;19963;-89
2022/01/27 09:11:59;;;;;;;;;;;;;;;;;;5069130;28;20660;-89
2022/01/27 09:14:29;;;;;;;;;;;;;;;;;;5083239;28;19959;-89
2022/01/27 09:16:55;;;;;;;;;;;;;;;;;;5081598;28;19948;-89
2022/01/27 09:19:21;;;;;;;;;;;;;;;;;;5085261;28;19932;-89
2022/01/27 09:21:48;;;;;;;;;;;;;;;;;;5089253;28;19952;-89
2022/01/27 09:24:16;;;;;;;;;;;;;;;;;;5087116;28;19959;-89
2022/01/27 09:26:53;;;;;;;;;;;;;;;;;;5085953;28;20295;-90
2022/01/27 09:29:20;;;;;;;;;;;;;;;;;;5085133;28;20014;-85
2022/01/27 09:31:46;;;;;;;;;;;;;;;;;;5086835;28;19952;-86
2022/01/27 09:34:12;;;;;;;;;;;;;;;;;;5068771;28;19951;-85
2022/01/27 09:36:38;;;;;;;;;;;;;;;;;;5086538;28;20025;-85
2022/01/27 09:39:04;;;;;;;;;;;;;;;;;;5083398;28;19952;-86
2022/01/27 09:41:30;;;;;;;;;;;;;;;;;;5085890;28;19916;-85
2022/01/27 09:43:58;;;;;;;;;;;;;;;;;;5086262;28;20383;-85
2022/01/27 09:46:26;;;;;;;;;;;;;;;;;;5081668;28;20339;-87
2022/01/27 09:48:57;;;;;;;;;;;;;;;;;;5088009;28;19974;-88
2022/01/27 09:51:27;;;;;;;;;;;;;;;;;;5088632;28;19966;-88
2022/01/27 09:53:53;;;;;;;;;;;;;;;;;;5067393;28;20407;-88
2022/01/27 09:56:19;;;;;;;;;;;;;;;;;;5088962;28;19916;-88
2022/01/27 09:58:46;;;;;;;;;;;;;;;;;;5093022;28;19967;-89
2022/01/27 10:01:12;;;;;;;;;;;;;;;;;;5076505;28;19916;-87
2022/01/27 10:03:38;;;;;;;;;;;;;;;;;;5085599;28;19956;-88
2022/01/27 10:06:04;;;;;;;;;;;;;;;;;;5088691;28;20453;-89
2022/01/27 10:08:30;;;;;;;;;;;;;;;;;;5086249;28;19955;-88
2022/01/27 10:10:58;;;;;;;;;;;;;;;;;;5089634;28;19959;-89
2022/01/27 10:13:25;;;;;;;;;;;;;;;;;;5088821;28;19923;-91
2022/01/27 10:15:51;;;;;;;;;;;;;;;;;;5077786;28;19967;-89
2022/01/27 10:18:18;;;;;;;;;;;;;;;;;;5086212;28;20399;-88
2022/01/27 10:20:44;;;;;;;;;;;;;;;;;;5087320;28;19975;-88
2022/01/27 10:23:11;;;;;;;;;;;;;;;;;;5085640;28;20019;-90
2022/01/27 10:29:08;;;;;;;;;;;;;;;;;;5022456;28;19923;-88
2022/01/27 10:31:38;;;;;;;;;;;;;;;;;;5057420;28;20010;-90
2022/01/27 10:34:05;;;;;;;;;;;;;;;;;;5065725;28;19962;-89
2022/01/27 10:36:31;;;;;;;;;;;;;;;;;;5063881;28;19956;-89
2022/01/27 10:38:57;;;;;;;;;;;;;;;;;;5067698;28;20402;-88
2022/01/27 10:41:24;;;;;;;;;;;;;;;;;;5065250;28;19916;-89
2022/01/27 10:43:51;;;;;;;;;;;;;;;;;;5090064;28;19916;-88
2022/01/27 10:46:29;;;;;;;;;;;;;;;;;;5088227;28;19969;-89
2022/01/27 10:49:01;;;;;;;;;;;;;;;;;;5085742;28;19943;-90
2022/01/27 10:51:39;;;;;;;;;;;;;;;;;;5082015;28;19944;-89
2022/01/27 10:54:06;;;;;;;;;;;;;;;;;;5085767;28;19969;-89
2022/01/27 10:56:32;;;;;;;;;;;;;;;;;;5088560;28;19916;-89
2022/01/27 10:58:59;;;;;;;;;;;;;;;;;;5092786;28;19954;-88
2022/01/27 11:01:25;;;;;;;;;;;;;;;;;;5086276;28;20512;-89
2022/01/27 11:03:51;;;;;;;;;;;;;;;;;;5092400;28;19959;-90
2022/01/27 11:06:17;;;;;;;;;;;;;;;;;;5093021;28;19959;-92
2022/01/27 11:08:43;;;;;;;;;;;;;;;;;;5092169;28;19946;-90
2022/01/27 11:11:10;;;;;;;;;;;;;;;;;;5091672;28;19963;-90
2022/01/27 11:13:36;;;;;;;;;;;;;;;;;;5093536;28;19993;-89
2022/01/27 11:16:04;;;;;;;;;;;;;;;;;;5062234;28;19924;-92
2022/01/27 11:18:30;;;;;;;;;;;;;;;;;;5069612;28;19925;-90
2022/01/27 11:21:00;;;;;;;;;;;;;;;;;;5065872;28;19948;-88
2022/01/27 11:26:08;;;;;;;;;;;;;;;;;;5068486;28;19960;-87
2022/01/27 11:28:35;;;;;;;;;;;;;;;;;;5067103;28;19948;-88
2022/01/27 11:31:02;;;;;;;;;;;;;;;;;;5070774;28;19956;-90
2022/01/27 11:33:29;;;;;;;;;;;;;;;;;;5068585;28;19963;-88
2022/01/27 11:35:55;;;;;;;;;;;;;;;;;;5069888;28;20444;-86
2022/01/27 11:38:22;;;;;;;;;;;;;;;;;;5068246;28;19955;-88
2022/01/27 11:40:48;;;;;;;;;;;;;;;;;;5065867;28;19916;-89
2022/01/27 11:43:14;;;;;;;;;;;;;;;;;;5067917;28;20005;-78
2022/01/27 11:45:40;;;;;;;;;;;;;;;;;;5071264;28;19975;-88
2022/01/27 11:48:08;;;;;;;;;;;;;;;;;;5067717;28;19956;-82
2022/01/27 11:50:36;;;;;;;;;;;;;;;;;;5064954;28;19948;-81
2022/01/27 11:53:02;;;;;;;;;;;;;;;;;;5067151;28;19959;-83
2022/01/27 11:55:29;;;;;;;;;;;;;;;;;;5056228;28;19960;-85
2022/01/27 11:57:55;;;;;;;;;;;;;;;;;;5068832;28;19948;-84
2022/01/27 12:00:21;;;;;;;;;;;;;;;;;;5069347;28;19972;-83
2022/01/27 12:02:50;;;;;;;;;;;;;;;;;;5062999;28;19920;-84
2022/01/27 12:05:17;;;;;;;;;;;;;;;;;;5047161;28;19952;-80
2022/01/27 12:07:43;;;;;;;;;;;;;;;;;;5085125;28;19925;-86
2022/01/27 12:10:09;;;;;;;;;;;;;;;;;;5087138;28;20007;-86
2022/01/27 12:12:37;;;;;;;;;;;;;;;;;;5089077;28;19959;-85
2022/01/27 12:15:06;;;;;;;;;;;;;;;;;;5069973;28;19967;-86
2022/01/27 12:17:34;;;;;;;;;;;;;;;;;;5077594;28;19920;-85
2022/01/27 12:20:02;;;;;;;;;;;;;;;;;;5079561;28;20367;-84
2022/01/27 12:22:31;;;;;;;;;;;;;;;;;;5066447;28;19935;-84
2022/01/27 12:24:57;;;;;;;;;;;;;;;;;;5087612;28;19956;-83
2022/01/27 12:27:23;;;;;;;;;;;;;;;;;;5066217;28;20046;-83
2022/01/27 12:29:49;;;;;;;;;;;;;;;;;;5089718;28;19951;-83
2022/01/27 12:32:15;;;;;;;;;;;;;;;;;;5086835;28;19960;-83
2022/01/27 12:34:42;;;;;;;;;;;;;;;;;;5072440;28;19960;-85
2022/01/27 12:37:08;;;;;;;;;;;;;;;;;;5068026;28;19959;-83
2022/01/27 12:39:34;;;;;;;;;;;;;;;;;;5061764;28;19928;-83
2022/01/27 12:42:00;;;;;;;;;;;;;;;;;;5066175;28;19948;-84
2022/01/27 12:44:28;;;;;;;;;;;;;;;;;;5082990;28;20522;-83
2022/01/27 12:46:54;;;;;;;;;;;;;;;;;;5077618;28;20383;-84
2022/01/27 12:49:20;;;;;;;;;;;;;;;;;;5090165;28;19997;-84
2022/01/27 12:51:47;;;;;;;;;;;;;;;;;;5083988;28;19976;-85
2022/01/27 12:54:14;;;;;;;;;;;;;;;;;;5064434;28;20021;-84
2022/01/27 12:56:40;;;;;;;;;;;;;;;;;;5084178;28;21383;-84
2022/01/27 12:59:07;;;;;;;;;;;;;;;;;;5087326;28;20618;-81
2022/01/27 13:01:33;;;;;;;;;;;;;;;;;;5082636;28;19966;-82
2022/01/27 13:03:59;;;;;;;;;;;;;;;;;;5086090;28;19948;-82
2022/01/27 13:06:25;;;;;;;;;;;;;;;;;;5082760;28;20420;-82
2022/01/27 13:08:52;;;;;;;;;;;;;;;;;;5080544;28;19967;-81
2022/01/27 13:11:18;;;;;;;;;;;;;;;;;;5066435;28;20494;-81
2022/01/27 13:13:46;;;;;;;;;;;;;;;;;;5087004;28;19963;-81
2022/01/27 13:16:18;;;;;;;;;;;;;;;;;;5080147;28;20008;-82
2022/01/27 13:18:57;;;;;;;;;;;;;;;;;;5079655;28;20201;-83
2022/01/27 13:21:27;;;;;;;;;;;;;;;;;;5085561;28;20340;-83
2022/01/27 13:23:53;;;;;;;;;;;;;;;;;;5085631;28;19952;-83
2022/01/27 13:26:20;;;;;;;;;;;;;;;;;;5084709;28;19963;-82
2022/01/27 13:28:51;;;;;;;;;;;;;;;;;;5084382;28;20131;-82
2022/01/27 13:31:17;;;;;;;;;;;;;;;;;;5083758;28;19959;-82
2022/01/27 13:33:43;;;;;;;;;;;;;;;;;;5080823;28;19960;-83
2022/01/27 13:36:10;;;;;;;;;;;;;;;;;;5083790;28;19975;-86
2022/01/27 13:38:50;;;;;;;;;;;;;;;;;;5062001;28;19951;-87
2022/01/27 13:41:18;;;;;;;;;;;;;;;;;;5087215;28;20032;-87
2022/01/27 13:43:45;;;;;;;;;;;;;;;;;;5088152;28;20032;-87
2022/01/27 13:46:11;;;;;;;;;;;;;;;;;;5086157;28;19962;-87
2022/01/27 13:48:37;;;;;;;;;;;;;;;;;;5086486;28;19970;-86
2022/01/27 13:51:04;;;;;;;;;;;;;;;;;;5081944;28;19985;-88
2022/01/27 13:53:30;;;;;;;;;;;;;;;;;;5083746;28;19959;-85
2022/01/27 13:55:56;;;;;;;;;;;;;;;;;;5068315;28;19948;-82
2022/01/27 13:58:24;;;;;;;;;;;;;;;;;;5084392;28;20388;-84
2022/01/27 14:00:52;;;;;;;;;;;;;;;;;;5072512;28;20016;-83
2022/01/27 14:03:18;;;;;;;;;;;;;;;;;;5084581;28;19947;-83
2022/01/27 14:05:45;;;;;;;;;;;;;;;;;;5084384;28;19990;-83
2022/01/27 14:08:11;;;;;;;;;;;;;;;;;;5085126;28;19951;-84
2022/01/27 14:10:40;;;;;;;;;;;;;;;;;;5082443;28;19970;-84
2022/01/27 14:13:09;;;;;;;;;;;;;;;;;;5085431;28;20054;-84
2022/01/27 14:15:35;;;;;;;;;;;;;;;;;;5080886;28;19964;-85
2022/01/27 14:18:01;;;;;;;;;;;;;;;;;;5061512;28;21065;-83
2022/01/27 14:20:27;;;;;;;;;;;;;;;;;;5065161;28;20341;-84
2022/01/27 14:22:54;;;;;;;;;;;;;;;;;;5081928;28;20322;-84
2022/01/27 14:25:23;;;;;;;;;;;;;;;;;;5083763;28;19971;-83
2022/01/27 14:27:49;;;;;;;;;;;;;;;;;;5085287;28;20450;-84
2022/01/27 14:30:16;;;;;;;;;;;;;;;;;;5062417;28;19916;-82
2022/01/27 14:32:42;;;;;;;;;;;;;;;;;;5068757;28;19963;-84
2022/01/27 14:35:08;;;;;;;;;;;;;;;;;;5070221;28;19962;-84
2022/01/27 14:37:35;;;;;;;;;;;;;;;;;;5088466;28;20006;-84
2022/01/27 14:40:01;;;;;;;;;;;;;;;;;;5089860;28;20429;-85
2022/01/27 14:42:27;;;;;;;;;;;;;;;;;;5091336;28;20316;-84
2022/01/27 14:44:54;;;;;;;;;;;;;;;;;;5090434;28;20420;-86
2022/01/27 14:47:20;;;;;;;;;;;;;;;;;;5085551;28;20583;-86
2022/01/27 14:49:50;;;;;;;;;;;;;;;;;;5085328;28;19952;-84
2022/01/27 14:52:20;;;;;;;;;;;;;;;;;;5087665;28;19994;-83
2022/01/27 14:54:46;;;;;;;;;;;;;;;;;;5089337;28;19994;-84
2022/01/27 14:57:12;;;;;;;;;;;;;;;;;;5068536;28;19981;-83
2022/01/27 14:59:39;;;;;;;;;;;;;;;;;;5084999;28;20017;-84
2022/01/27 15:02:05;;;;;;;;;;;;;;;;;;5082999;28;19966;-83
2022/01/27 15:04:34;;;;;;;;;;;;;;;;;;5088456;28;20360;-83
2022/01/27 15:07:00;;;;;;;;;;;;;;;;;;5087288;28;20013;-83
2022/01/27 15:09:27;;;;;;;;;;;;;;;;;;5067381;28;19920;-83
2022/01/27 15:11:53;;;;;;;;;;;;;;;;;;5086913;28;19971;-83
2022/01/27 15:19:48;;;;;;;;;;;;;;;;;;5083616;28;20340;-83
2022/01/27 15:22:15;;;;;;;;;;;;;;;;;;5088868;28;19963;-80
2022/01/27 15:24:43;;;;;;;;;;;;;;;;;;5067921;28;20008;-84
2022/01/27 15:27:09;;;;;;;;;;;;;;;;;;5087581;28;20012;-82
2022/01/27 15:29:35;;;;;;;;;;;;;;;;;;5088713;28;19962;-84
2022/01/27 15:32:03;;;;;;;;;;;;;;;;;;5087467;28;19954;-84
2022/01/27 15:34:29;;;;;;;;;;;;;;;;;;5081244;28;19939;-83
2022/01/27 15:36:56;;;;;;;;;;;;;;;;;;5084682;28;19947;-83
2022/01/27 15:39:23;;;;;;;;;;;;;;;;;;5087162;28;19920;-83
2022/01/27 15:41:51;;;;;;;;;;;;;;;;;;5068659;28;20372;-87
2022/01/27 15:44:17;;;;;;;;;;;;;;;;;;5071197;28;20163;-87
2022/01/27 15:46:43;;;;;;;;;;;;;;;;;;5088143;28;19943;-88
2022/01/27 15:49:09;;;;;;;;;;;;;;;;;;5088748;28;19960;-90
2022/01/27 15:51:37;;;;;;;;;;;;;;;;;;5069859;28;19958;-89
2022/01/27 15:54:03;;;;;;;;;;;;;;;;;;5087624;28;19943;-88
2022/01/27 15:56:29;;;;;;;;;;;;;;;;;;5089340;28;19967;-90
2022/01/27 15:58:56;;;;;;;;;;;;;;;;;;5090780;28;19954;-88
2022/01/27 16:01:22;;;;;;;;;;;;;;;;;;5067890;28;20480;-87
2022/01/27 16:03:48;;;;;;;;;;;;;;;;;;5086954;28;19951;-89
2022/01/27 16:06:14;;;;;;;;;;;;;;;;;;5070574;28;20593;-90
2022/01/27 16:08:41;;;;;;;;;;;;;;;;;;5069826;28;20258;-87
2022/01/27 16:11:07;;;;;;;;;;;;;;;;;;5087218;28;20171;-90
2022/01/27 16:13:34;;;;;;;;;;;;;;;;;;5088913;28;19916;-89
2022/01/27 16:16:00;;;;;;;;;;;;;;;;;;5069241;28;20350;-89
2022/01/27 16:18:26;;;;;;;;;;;;;;;;;;5087964;28;20442;-89
2022/01/27 16:20:52;;;;;;;;;;;;;;;;;;5086932;28;19959;-90
2022/01/27 16:23:18;;;;;;;;;;;;;;;;;;5089130;28;20679;-87
2022/01/27 16:25:45;;;;;;;;;;;;;;;;;;5087551;28;19962;-90
2022/01/27 16:28:11;;;;;;;;;;;;;;;;;;5093049;28;19924;-88
2022/01/27 16:30:37;;;;;;;;;;;;;;;;;;5068214;28;19955;-86
2022/01/27 16:33:03;;;;;;;;;;;;;;;;;;5074726;28;20085;-87
2022/01/27 16:35:29;;;;;;;;;;;;;;;;;;5086808;28;19966;-88
2022/01/27 16:37:58;;;;;;;;;;;;;;;;;;5087228;28;20386;-89
2022/01/27 16:40:24;;;;;;;;;;;;;;;;;;5074239;28;20041;-88
2022/01/27 16:42:50;;;;;;;;;;;;;;;;;;5089525;28;19963;-88
2022/01/27 16:45:17;;;;;;;;;;;;;;;;;;5065335;28;19951;-87
2022/01/27 16:47:43;;;;;;;;;;;;;;;;;;5082784;28;20413;-88
2022/01/27 16:50:09;;;;;;;;;;;;;;;;;;5088511;28;19967;-88
2022/01/27 16:52:35;;;;;;;;;;;;;;;;;;5086002;28;22844;-88
2022/01/27 16:55:01;;;;;;;;;;;;;;;;;;5088754;28;19947;-89
2022/01/27 16:57:28;;;;;;;;;;;;;;;;;;5070826;28;20012;-87
2022/01/27 16:59:54;;;;;;;;;;;;;;;;;;5090792;28;19944;-86
2022/01/27 17:02:20;;;;;;;;;;;;;;;;;;5092644;28;19932;-87
2022/01/27 17:04:46;;;;;;;;;;;;;;;;;;5090076;28;19951;-87
2022/01/27 17:07:12;;;;;;;;;;;;;;;;;;5089302;28;19924;-90
2022/01/27 17:09:43;;;;;;;;;;;;;;;;;;5052478;28;19916;-89
2022/01/27 17:12:12;;;;;;;;;;;;;;;;;;5071527;28;19916;-84
2022/01/27 17:14:38;;;;;;;;;;;;;;;;;;5068050;28;19966;-84
2022/01/27 17:17:04;;;;;;;;;;;;;;;;;;5084579;28;19967;-84
2022/01/27 17:19:30;;;;;;;;;;;;;;;;;;5085888;28;19966;-83
2022/01/27 17:22:01;;;;;;;;;;;;;;;;;;5068396;28;19951;-83
2022/01/27 17:24:27;;;;;;;;;;;;;;;;;;5082021;28;20450;-83
2022/01/27 17:26:54;;;;;;;;;;;;;;;;;;5086265;28;20026;-84
2022/01/27 17:29:20;;;;;;;;;;;;;;;;;;5087267;28;20005;-88
2022/01/27 17:31:46;;;;;;;;;;;;;;;;;;5085783;28;19956;-87
2022/01/27 17:34:12;;;;;;;;;;;;;;;;;;5067109;28;19951;-86
2022/01/27 17:36:38;;;;;;;;;;;;;;;;;;5084419;28;20647;-85